sensor_id;sensor_type;location;lat;lon;timestamp;P1;durP1;ratioP1;P2;durP2;ratioP2
79687;SDS011;69155;49.464;2.108;2023-09-18T00:00:20;2.07;;;1.53;;
79687;SDS011;69155;49.464;2.108;2023-09-18T00:02:46;1.50;;;1.05;;
79687;SDS011;69155;49.464;2.108;2023-09-18T00:05:12;1.08;;;0.95;;
79687;SDS011;69155;49.464;2.108;2023-09-18T00:07:40;1.65;;;1.20;;
79687;SDS011;69155;49.464;2.108;2023-09-18T00:10:06;1.53;;;1.40;;
79687;SDS011;69155;49.464;2.108;2023-09-18T00:12:31;2.65;;;1.50;;
79687;SDS011;69155;49.464;2.108;2023-09-18T00:14:58;1.77;;;1.17;;
79687;SDS011;69155;49.464;2.108;2023-09-18T00:17:23;7.17;;;1.50;;
79687;SDS011;69155;49.464;2.108;2023-09-18T00:19:49;1.42;;;1.10;;
79687;SDS011;69155;49.464;2.108;2023-09-18T00:22:16;1.35;;;1.23;;
79687;SDS011;69155;49.464;2.108;2023-09-18T00:24:42;1.58;;;1.48;;
79687;SDS011;69155;49.464;2.108;2023-09-18T00:27:07;3.10;;;1.40;;
79687;SDS011;69155;49.464;2.108;2023-09-18T00:29:32;1.40;;;1.30;;
79687;SDS011;69155;49.464;2.108;2023-09-18T00:31:57;1.30;;;1.00;;
79687;SDS011;69155;49.464;2.108;2023-09-18T00:34:22;1.27;;;1.00;;
79687;SDS011;69155;49.464;2.108;2023-09-18T00:36:48;0.70;;;0.70;;
79687;SDS011;69155;49.464;2.108;2023-09-18T00:39:15;1.63;;;1.33;;
79687;SDS011;69155;49.464;2.108;2023-09-18T00:41:41;2.00;;;1.40;;
79687;SDS011;69155;49.464;2.108;2023-09-18T00:44:06;1.23;;;1.13;;
79687;SDS011;69155;49.464;2.108;2023-09-18T00:46:31;1.27;;;1.10;;
79687;SDS011;69155;49.464;2.108;2023-09-18T00:48:56;1.52;;;1.00;;
79687;SDS011;69155;49.464;2.108;2023-09-18T00:51:22;1.30;;;1.07;;
79687;SDS011;69155;49.464;2.108;2023-09-18T00:53:47;1.40;;;1.00;;
79687;SDS011;69155;49.464;2.108;2023-09-18T00:56:13;1.23;;;1.10;;
79687;SDS011;69155;49.464;2.108;2023-09-18T00:58:38;1.42;;;1.10;;
79687;SDS011;69155;49.464;2.108;2023-09-18T01:01:04;1.23;;;1.10;;
79687;SDS011;69155;49.464;2.108;2023-09-18T01:03:29;1.97;;;1.10;;
79687;SDS011;69155;49.464;2.108;2023-09-18T01:05:54;2.70;;;1.05;;
79687;SDS011;69155;49.464;2.108;2023-09-18T01:08:20;1.70;;;1.27;;
79687;SDS011;69155;49.464;2.108;2023-09-18T01:10:48;1.95;;;1.50;;
79687;SDS011;69155;49.464;2.108;2023-09-18T01:13:21;1.90;;;1.10;;
79687;SDS011;69155;49.464;2.108;2023-09-18T01:15:58;1.27;;;1.13;;
79687;SDS011;69155;49.464;2.108;2023-09-18T01:18:27;4.18;;;1.27;;
79687;SDS011;69155;49.464;2.108;2023-09-18T01:20:52;2.70;;;1.50;;
79687;SDS011;69155;49.464;2.108;2023-09-18T01:23:18;1.10;;;1.00;;
79687;SDS011;69155;49.464;2.108;2023-09-18T01:25:43;1.57;;;1.20;;
79687;SDS011;69155;49.464;2.108;2023-09-18T01:28:11;1.63;;;1.50;;
79687;SDS011;69155;49.464;2.108;2023-09-18T01:30:36;1.95;;;1.40;;
79687;SDS011;69155;49.464;2.108;2023-09-18T01:33:03;2.38;;;1.27;;
79687;SDS011;69155;49.464;2.108;2023-09-18T01:35:29;2.05;;;1.80;;
79687;SDS011;69155;49.464;2.108;2023-09-18T01:37:58;1.70;;;1.33;;
79687;SDS011;69155;49.464;2.108;2023-09-18T01:40:24;1.85;;;1.45;;
79687;SDS011;69155;49.464;2.108;2023-09-18T01:42:49;3.20;;;1.37;;
79687;SDS011;69155;49.464;2.108;2023-09-18T01:45:15;4.40;;;1.50;;
79687;SDS011;69155;49.464;2.108;2023-09-18T01:47:40;3.80;;;1.70;;
79687;SDS011;69155;49.464;2.108;2023-09-18T01:50:05;1.70;;;1.60;;
79687;SDS011;69155;49.464;2.108;2023-09-18T01:52:33;3.22;;;1.83;;
79687;SDS011;69155;49.464;2.108;2023-09-18T01:54:59;2.40;;;1.95;;
79687;SDS011;69155;49.464;2.108;2023-09-18T01:57:25;2.85;;;2.05;;
79687;SDS011;69155;49.464;2.108;2023-09-18T01:59:50;2.60;;;2.13;;
79687;SDS011;69155;49.464;2.108;2023-09-18T02:02:16;2.90;;;1.90;;
79687;SDS011;69155;49.464;2.108;2023-09-18T02:04:41;2.33;;;1.60;;
79687;SDS011;69155;49.464;2.108;2023-09-18T02:07:06;4.90;;;2.33;;
79687;SDS011;69155;49.464;2.108;2023-09-18T02:09:32;2.25;;;1.80;;
79687;SDS011;69155;49.464;2.108;2023-09-18T02:11:57;3.92;;;2.20;;
79687;SDS011;69155;49.464;2.108;2023-09-18T02:14:23;2.80;;;1.80;;
79687;SDS011;69155;49.464;2.108;2023-09-18T02:16:48;2.90;;;2.00;;
79687;SDS011;69155;49.464;2.108;2023-09-18T02:19:14;2.63;;;1.92;;
79687;SDS011;69155;49.464;2.108;2023-09-18T02:21:39;3.50;;;1.83;;
79687;SDS011;69155;49.464;2.108;2023-09-18T02:24:05;1.85;;;1.35;;
79687;SDS011;69155;49.464;2.108;2023-09-18T02:26:30;2.03;;;1.73;;
79687;SDS011;69155;49.464;2.108;2023-09-18T02:28:58;2.67;;;1.73;;
79687;SDS011;69155;49.464;2.108;2023-09-18T02:31:23;6.22;;;2.05;;
79687;SDS011;69155;49.464;2.108;2023-09-18T02:33:48;2.77;;;1.80;;
79687;SDS011;69155;49.464;2.108;2023-09-18T02:36:13;2.13;;;1.30;;
79687;SDS011;69155;49.464;2.108;2023-09-18T02:38:39;3.10;;;1.40;;
79687;SDS011;69155;49.464;2.108;2023-09-18T02:41:04;1.67;;;1.30;;
79687;SDS011;69155;49.464;2.108;2023-09-18T02:43:29;1.37;;;1.20;;
79687;SDS011;69155;49.464;2.108;2023-09-18T02:45:54;2.53;;;1.60;;
79687;SDS011;69155;49.464;2.108;2023-09-18T02:48:20;2.03;;;1.37;;
79687;SDS011;69155;49.464;2.108;2023-09-18T02:50:45;1.70;;;1.40;;
79687;SDS011;69155;49.464;2.108;2023-09-18T02:53:20;1.80;;;1.40;;
79687;SDS011;69155;49.464;2.108;2023-09-18T02:55:53;1.85;;;1.50;;
79687;SDS011;69155;49.464;2.108;2023-09-18T02:58:18;2.03;;;1.20;;
79687;SDS011;69155;49.464;2.108;2023-09-18T03:00:45;1.85;;;1.40;;
79687;SDS011;69155;49.464;2.108;2023-09-18T03:03:10;1.30;;;1.20;;
79687;SDS011;69155;49.464;2.108;2023-09-18T03:05:36;1.23;;;1.13;;
79687;SDS011;69155;49.464;2.108;2023-09-18T03:08:01;1.38;;;1.27;;
79687;SDS011;69155;49.464;2.108;2023-09-18T03:10:27;2.75;;;1.60;;
79687;SDS011;69155;49.464;2.108;2023-09-18T03:12:52;1.33;;;1.17;;
79687;SDS011;69155;49.464;2.108;2023-09-18T03:15:23;1.57;;;1.37;;
79687;SDS011;69155;49.464;2.108;2023-09-18T03:17:50;1.65;;;1.50;;
79687;SDS011;69155;49.464;2.108;2023-09-18T03:20:15;2.33;;;1.58;;
79687;SDS011;69155;49.464;2.108;2023-09-18T03:22:40;1.20;;;1.10;;
79687;SDS011;69155;49.464;2.108;2023-09-18T03:25:06;2.27;;;1.30;;
79687;SDS011;69155;49.464;2.108;2023-09-18T03:27:31;2.30;;;1.60;;
79687;SDS011;69155;49.464;2.108;2023-09-18T03:29:57;3.00;;;1.65;;
79687;SDS011;69155;49.464;2.108;2023-09-18T03:32:22;1.88;;;1.33;;
79687;SDS011;69155;49.464;2.108;2023-09-18T03:34:50;2.33;;;1.47;;
79687;SDS011;69155;49.464;2.108;2023-09-18T03:37:15;2.63;;;1.67;;
79687;SDS011;69155;49.464;2.108;2023-09-18T03:39:40;2.10;;;1.50;;
79687;SDS011;69155;49.464;2.108;2023-09-18T03:42:05;2.80;;;1.80;;
79687;SDS011;69155;49.464;2.108;2023-09-18T03:44:31;1.70;;;1.40;;
79687;SDS011;69155;49.464;2.108;2023-09-18T03:46:57;1.58;;;1.40;;
79687;SDS011;69155;49.464;2.108;2023-09-18T03:49:22;5.50;;;1.70;;
79687;SDS011;69155;49.464;2.108;2023-09-18T03:51:47;1.70;;;1.50;;
79687;SDS011;69155;49.464;2.108;2023-09-18T03:54:12;2.63;;;1.73;;
79687;SDS011;69155;49.464;2.108;2023-09-18T03:56:37;4.43;;;1.37;;
79687;SDS011;69155;49.464;2.108;2023-09-18T03:59:03;2.00;;;1.40;;
79687;SDS011;69155;49.464;2.108;2023-09-18T04:01:29;4.05;;;1.38;;
79687;SDS011;69155;49.464;2.108;2023-09-18T04:03:55;1.52;;;1.15;;
79687;SDS011;69155;49.464;2.108;2023-09-18T04:06:20;1.73;;;1.60;;
79687;SDS011;69155;49.464;2.108;2023-09-18T04:08:45;1.75;;;1.63;;
79687;SDS011;69155;49.464;2.108;2023-09-18T04:11:11;3.07;;;1.83;;
79687;SDS011;69155;49.464;2.108;2023-09-18T04:13:36;1.80;;;1.40;;
79687;SDS011;69155;49.464;2.108;2023-09-18T04:16:02;1.33;;;1.17;;
79687;SDS011;69155;49.464;2.108;2023-09-18T04:18:29;2.50;;;1.65;;
79687;SDS011;69155;49.464;2.108;2023-09-18T04:20:54;1.27;;;1.17;;
79687;SDS011;69155;49.464;2.108;2023-09-18T04:23:20;1.60;;;1.40;;
79687;SDS011;69155;49.464;2.108;2023-09-18T04:25:46;1.83;;;1.48;;
79687;SDS011;69155;49.464;2.108;2023-09-18T04:28:12;2.15;;;1.60;;
79687;SDS011;69155;49.464;2.108;2023-09-18T04:30:38;2.28;;;1.60;;
79687;SDS011;69155;49.464;2.108;2023-09-18T04:33:05;2.15;;;1.77;;
79687;SDS011;69155;49.464;2.108;2023-09-18T04:35:31;1.90;;;1.58;;
79687;SDS011;69155;49.464;2.108;2023-09-18T04:37:56;1.70;;;1.50;;
79687;SDS011;69155;49.464;2.108;2023-09-18T04:40:22;2.00;;;1.80;;
79687;SDS011;69155;49.464;2.108;2023-09-18T04:42:49;2.65;;;1.67;;
79687;SDS011;69155;49.464;2.108;2023-09-18T04:45:14;2.72;;;1.80;;
79687;SDS011;69155;49.464;2.108;2023-09-18T04:47:41;1.33;;;1.15;;
79687;SDS011;69155;49.464;2.108;2023-09-18T04:50:06;1.97;;;1.60;;
79687;SDS011;69155;49.464;2.108;2023-09-18T04:52:34;1.90;;;1.48;;
79687;SDS011;69155;49.464;2.108;2023-09-18T04:55:00;2.00;;;1.50;;
79687;SDS011;69155;49.464;2.108;2023-09-18T04:57:25;2.97;;;1.80;;
79687;SDS011;69155;49.464;2.108;2023-09-18T04:59:50;2.20;;;1.70;;
79687;SDS011;69155;49.464;2.108;2023-09-18T05:02:15;3.87;;;1.93;;
79687;SDS011;69155;49.464;2.108;2023-09-18T05:04:41;1.77;;;1.27;;
79687;SDS011;69155;49.464;2.108;2023-09-18T05:07:06;5.38;;;1.70;;
79687;SDS011;69155;49.464;2.108;2023-09-18T05:09:32;2.60;;;1.83;;
79687;SDS011;69155;49.464;2.108;2023-09-18T05:11:57;2.42;;;1.58;;
79687;SDS011;69155;49.464;2.108;2023-09-18T05:14:23;1.33;;;1.23;;
79687;SDS011;69155;49.464;2.108;2023-09-18T05:16:48;1.63;;;1.40;;
79687;SDS011;69155;49.464;2.108;2023-09-18T05:19:16;1.33;;;1.23;;
79687;SDS011;69155;49.464;2.108;2023-09-18T05:21:41;2.30;;;1.70;;
79687;SDS011;69155;49.464;2.108;2023-09-18T05:24:07;2.38;;;1.80;;
79687;SDS011;69155;49.464;2.108;2023-09-18T05:26:32;1.83;;;1.60;;
79687;SDS011;69155;49.464;2.108;2023-09-18T05:28:58;2.97;;;1.80;;
79687;SDS011;69155;49.464;2.108;2023-09-18T05:31:23;2.67;;;1.83;;
79687;SDS011;69155;49.464;2.108;2023-09-18T05:33:49;2.63;;;1.95;;
79687;SDS011;69155;49.464;2.108;2023-09-18T05:36:14;2.80;;;2.10;;
79687;SDS011;69155;49.464;2.108;2023-09-18T05:38:39;4.53;;;1.90;;
79687;SDS011;69155;49.464;2.108;2023-09-18T05:41:05;2.53;;;2.10;;
79687;SDS011;69155;49.464;2.108;2023-09-18T05:43:30;3.20;;;2.10;;
79687;SDS011;69155;49.464;2.108;2023-09-18T05:45:55;3.63;;;1.90;;
79687;SDS011;69155;49.464;2.108;2023-09-18T05:48:21;3.17;;;2.13;;
79687;SDS011;69155;49.464;2.108;2023-09-18T05:50:46;3.23;;;2.07;;
79687;SDS011;69155;49.464;2.108;2023-09-18T05:53:12;3.38;;;1.85;;
79687;SDS011;69155;49.464;2.108;2023-09-18T05:55:38;1.67;;;1.57;;
79687;SDS011;69155;49.464;2.108;2023-09-18T05:58:04;2.88;;;2.13;;
79687;SDS011;69155;49.464;2.108;2023-09-18T06:00:30;3.00;;;2.22;;
79687;SDS011;69155;49.464;2.108;2023-09-18T06:02:58;4.18;;;2.60;;
79687;SDS011;69155;49.464;2.108;2023-09-18T06:05:24;4.72;;;2.97;;
79687;SDS011;69155;49.464;2.108;2023-09-18T06:07:49;3.70;;;2.45;;
79687;SDS011;69155;49.464;2.108;2023-09-18T06:10:15;4.37;;;2.53;;
79687;SDS011;69155;49.464;2.108;2023-09-18T06:12:40;6.70;;;3.17;;
79687;SDS011;69155;49.464;2.108;2023-09-18T06:15:08;4.20;;;2.50;;
79687;SDS011;69155;49.464;2.108;2023-09-18T06:17:35;5.53;;;2.92;;
79687;SDS011;69155;49.464;2.108;2023-09-18T06:20:00;4.22;;;2.88;;
79687;SDS011;69155;49.464;2.108;2023-09-18T06:22:25;4.07;;;2.90;;
79687;SDS011;69155;49.464;2.108;2023-09-18T06:24:50;4.60;;;2.67;;
79687;SDS011;69155;49.464;2.108;2023-09-18T06:27:15;4.47;;;2.50;;
79687;SDS011;69155;49.464;2.108;2023-09-18T06:29:41;4.97;;;2.80;;
79687;SDS011;69155;49.464;2.108;2023-09-18T06:32:08;5.35;;;2.92;;
79687;SDS011;69155;49.464;2.108;2023-09-18T06:34:33;6.10;;;2.03;;
79687;SDS011;69155;49.464;2.108;2023-09-18T06:37:01;3.67;;;2.50;;
79687;SDS011;69155;49.464;2.108;2023-09-18T06:39:31;4.80;;;3.05;;
79687;SDS011;69155;49.464;2.108;2023-09-18T06:45:00;6.15;;;2.85;;
79687;SDS011;69155;49.464;2.108;2023-09-18T06:47:26;3.95;;;2.63;;
79687;SDS011;69155;49.464;2.108;2023-09-18T06:49:51;4.50;;;3.17;;
79687;SDS011;69155;49.464;2.108;2023-09-18T06:52:17;4.03;;;3.20;;
79687;SDS011;69155;49.464;2.108;2023-09-18T06:54:42;4.23;;;2.83;;
79687;SDS011;69155;49.464;2.108;2023-09-18T06:57:08;4.72;;;2.95;;
79687;SDS011;69155;49.464;2.108;2023-09-18T06:59:34;3.60;;;2.73;;
79687;SDS011;69155;49.464;2.108;2023-09-18T07:02:00;7.27;;;3.00;;
79687;SDS011;69155;49.464;2.108;2023-09-18T07:04:25;3.72;;;2.78;;
79687;SDS011;69155;49.464;2.108;2023-09-18T07:06:50;6.00;;;2.63;;
79687;SDS011;69155;49.464;2.108;2023-09-18T07:09:16;3.13;;;2.75;;
79687;SDS011;69155;49.464;2.108;2023-09-18T07:11:43;3.95;;;2.60;;
79687;SDS011;69155;49.464;2.108;2023-09-18T07:14:09;3.45;;;2.47;;
79687;SDS011;69155;49.464;2.108;2023-09-18T07:16:34;4.38;;;2.97;;
79687;SDS011;69155;49.464;2.108;2023-09-18T07:18:59;3.13;;;2.50;;
79687;SDS011;69155;49.464;2.108;2023-09-18T07:21:24;6.50;;;3.73;;
79687;SDS011;69155;49.464;2.108;2023-09-18T07:23:50;3.40;;;2.43;;
79687;SDS011;69155;49.464;2.108;2023-09-18T07:26:15;4.75;;;2.53;;
79687;SDS011;69155;49.464;2.108;2023-09-18T07:28:40;3.93;;;2.77;;
79687;SDS011;69155;49.464;2.108;2023-09-18T07:31:08;4.78;;;2.90;;
79687;SDS011;69155;49.464;2.108;2023-09-18T07:33:34;3.58;;;2.78;;
79687;SDS011;69155;49.464;2.108;2023-09-18T07:36:00;3.67;;;2.60;;
79687;SDS011;69155;49.464;2.108;2023-09-18T07:38:25;3.07;;;2.47;;
79687;SDS011;69155;49.464;2.108;2023-09-18T07:40:50;3.67;;;2.53;;
79687;SDS011;69155;49.464;2.108;2023-09-18T07:43:15;3.13;;;2.40;;
79687;SDS011;69155;49.464;2.108;2023-09-18T07:45:40;2.77;;;2.17;;
79687;SDS011;69155;49.464;2.108;2023-09-18T07:48:06;2.10;;;1.90;;
79687;SDS011;69155;49.464;2.108;2023-09-18T07:50:32;5.43;;;2.63;;
79687;SDS011;69155;49.464;2.108;2023-09-18T07:52:58;6.32;;;2.88;;
79687;SDS011;69155;49.464;2.108;2023-09-18T07:55:23;3.25;;;2.38;;
79687;SDS011;69155;49.464;2.108;2023-09-18T07:57:49;4.07;;;2.45;;
79687;SDS011;69155;49.464;2.108;2023-09-18T08:00:14;2.90;;;2.33;;
79687;SDS011;69155;49.464;2.108;2023-09-18T08:02:40;2.72;;;2.03;;
79687;SDS011;69155;49.464;2.108;2023-09-18T08:05:06;3.28;;;2.40;;
79687;SDS011;69155;49.464;2.108;2023-09-18T08:07:33;3.53;;;2.47;;
79687;SDS011;69155;49.464;2.108;2023-09-18T08:10:00;3.95;;;2.63;;
79687;SDS011;69155;49.464;2.108;2023-09-18T08:12:25;4.53;;;2.47;;
79687;SDS011;69155;49.464;2.108;2023-09-18T08:14:50;5.40;;;2.40;;
79687;SDS011;69155;49.464;2.108;2023-09-18T08:17:16;6.57;;;2.53;;
79687;SDS011;69155;49.464;2.108;2023-09-18T08:19:41;3.20;;;2.15;;
79687;SDS011;69155;49.464;2.108;2023-09-18T08:22:06;2.63;;;2.23;;
79687;SDS011;69155;49.464;2.108;2023-09-18T08:24:31;4.83;;;2.50;;
79687;SDS011;69155;49.464;2.108;2023-09-18T08:26:57;3.60;;;2.57;;
79687;SDS011;69155;49.464;2.108;2023-09-18T08:29:22;5.80;;;2.60;;
79687;SDS011;69155;49.464;2.108;2023-09-18T08:31:48;3.83;;;2.35;;
79687;SDS011;69155;49.464;2.108;2023-09-18T08:34:13;4.03;;;2.63;;
79687;SDS011;69155;49.464;2.108;2023-09-18T08:36:39;2.72;;;2.30;;
79687;SDS011;69155;49.464;2.108;2023-09-18T08:39:04;5.33;;;2.80;;
79687;SDS011;69155;49.464;2.108;2023-09-18T08:41:33;3.35;;;2.03;;
79687;SDS011;69155;49.464;2.108;2023-09-18T08:44:02;2.88;;;2.15;;
79687;SDS011;69155;49.464;2.108;2023-09-18T08:46:28;3.28;;;2.33;;
79687;SDS011;69155;49.464;2.108;2023-09-18T08:48:54;5.18;;;1.92;;
79687;SDS011;69155;49.464;2.108;2023-09-18T08:51:19;6.13;;;1.80;;
79687;SDS011;69155;49.464;2.108;2023-09-18T08:53:46;8.18;;;2.20;;
79687;SDS011;69155;49.464;2.108;2023-09-18T08:56:11;4.73;;;2.27;;
79687;SDS011;69155;49.464;2.108;2023-09-18T08:58:37;3.13;;;2.10;;
79687;SDS011;69155;49.464;2.108;2023-09-18T09:01:05;3.08;;;2.30;;
79687;SDS011;69155;49.464;2.108;2023-09-18T09:03:31;2.85;;;2.15;;
79687;SDS011;69155;49.464;2.108;2023-09-18T09:05:59;4.45;;;2.33;;
79687;SDS011;69155;49.464;2.108;2023-09-18T09:08:26;2.97;;;2.13;;
79687;SDS011;69155;49.464;2.108;2023-09-18T09:10:52;4.10;;;2.22;;
79687;SDS011;69155;49.464;2.108;2023-09-18T09:13:17;3.37;;;2.43;;
79687;SDS011;69155;49.464;2.108;2023-09-18T09:15:46;4.18;;;2.72;;
79687;SDS011;69155;49.464;2.108;2023-09-18T09:18:13;6.10;;;3.10;;
79687;SDS011;69155;49.464;2.108;2023-09-18T09:20:40;2.30;;;1.77;;
79687;SDS011;69155;49.464;2.108;2023-09-18T09:23:07;2.60;;;2.03;;
79687;SDS011;69155;49.464;2.108;2023-09-18T09:25:33;3.22;;;1.92;;
79687;SDS011;69155;49.464;2.108;2023-09-18T09:28:03;3.72;;;2.17;;
79687;SDS011;69155;49.464;2.108;2023-09-18T09:32:56;2.30;;;1.90;;
79687;SDS011;69155;49.464;2.108;2023-09-18T09:35:24;2.72;;;2.05;;
79687;SDS011;69155;49.464;2.108;2023-09-18T09:37:52;2.97;;;2.25;;
79687;SDS011;69155;49.464;2.108;2023-09-18T09:40:18;2.15;;;1.77;;
79687;SDS011;69155;49.464;2.108;2023-09-18T09:42:44;4.53;;;3.13;;
79687;SDS011;69155;49.464;2.108;2023-09-18T09:45:14;2.70;;;1.95;;
79687;SDS011;69155;49.464;2.108;2023-09-18T09:47:42;4.75;;;2.08;;
79687;SDS011;69155;49.464;2.108;2023-09-18T09:50:09;2.97;;;2.05;;
79687;SDS011;69155;49.464;2.108;2023-09-18T09:52:35;3.20;;;1.88;;
79687;SDS011;69155;49.464;2.108;2023-09-18T09:55:01;3.00;;;2.03;;
79687;SDS011;69155;49.464;2.108;2023-09-18T09:57:28;4.15;;;1.75;;
79687;SDS011;69155;49.464;2.108;2023-09-18T09:59:55;3.40;;;2.63;;
79687;SDS011;69155;49.464;2.108;2023-09-18T10:02:31;2.97;;;2.28;;
79687;SDS011;69155;49.464;2.108;2023-09-18T10:04:59;1.95;;;1.75;;
79687;SDS011;69155;49.464;2.108;2023-09-18T10:07:24;3.45;;;2.03;;
79687;SDS011;69155;49.464;2.108;2023-09-18T10:09:50;2.25;;;1.90;;
79687;SDS011;69155;49.464;2.108;2023-09-18T10:12:17;3.65;;;2.10;;
79687;SDS011;69155;49.464;2.108;2023-09-18T10:14:45;2.95;;;2.13;;
79687;SDS011;69155;49.464;2.108;2023-09-18T10:17:17;3.15;;;2.10;;
79687;SDS011;69155;49.464;2.108;2023-09-18T10:20:02;2.83;;;1.83;;
79687;SDS011;69155;49.464;2.108;2023-09-18T10:22:37;3.33;;;2.05;;
79687;SDS011;69155;49.464;2.108;2023-09-18T10:25:05;2.28;;;1.80;;
79687;SDS011;69155;49.464;2.108;2023-09-18T10:27:34;2.33;;;1.70;;
79687;SDS011;69155;49.464;2.108;2023-09-18T10:30:00;2.42;;;1.90;;
79687;SDS011;69155;49.464;2.108;2023-09-18T10:32:30;1.90;;;1.60;;
79687;SDS011;69155;49.464;2.108;2023-09-18T10:34:57;2.78;;;1.90;;
79687;SDS011;69155;49.464;2.108;2023-09-18T10:37:25;6.90;;;2.20;;
79687;SDS011;69155;49.464;2.108;2023-09-18T10:39:51;2.60;;;1.85;;
79687;SDS011;69155;49.464;2.108;2023-09-18T10:42:18;2.55;;;1.80;;
79687;SDS011;69155;49.464;2.108;2023-09-18T10:44:43;3.03;;;2.15;;
79687;SDS011;69155;49.464;2.108;2023-09-18T10:47:10;2.53;;;2.10;;
79687;SDS011;69155;49.464;2.108;2023-09-18T10:49:36;2.30;;;1.77;;
79687;SDS011;69155;49.464;2.108;2023-09-18T10:52:02;2.23;;;1.83;;
79687;SDS011;69155;49.464;2.108;2023-09-18T10:54:29;2.05;;;1.65;;
79687;SDS011;69155;49.464;2.108;2023-09-18T10:56:55;1.85;;;1.67;;
79687;SDS011;69155;49.464;2.108;2023-09-18T10:59:21;3.10;;;1.80;;
79687;SDS011;69155;49.464;2.108;2023-09-18T11:01:46;5.13;;;1.87;;
79687;SDS011;69155;49.464;2.108;2023-09-18T11:04:13;2.65;;;1.83;;
79687;SDS011;69155;49.464;2.108;2023-09-18T11:09:20;1.77;;;1.45;;
79687;SDS011;69155;49.464;2.108;2023-09-18T11:11:46;3.22;;;2.03;;
79687;SDS011;69155;49.464;2.108;2023-09-18T11:14:13;1.80;;;1.42;;
79687;SDS011;69155;49.464;2.108;2023-09-18T11:16:41;1.80;;;1.40;;
79687;SDS011;69155;49.464;2.108;2023-09-18T11:21:32;2.03;;;1.70;;
79687;SDS011;69155;49.464;2.108;2023-09-18T11:24:02;3.17;;;1.75;;
79687;SDS011;69155;49.464;2.108;2023-09-18T11:26:34;2.20;;;1.80;;
79687;SDS011;69155;49.464;2.108;2023-09-18T11:29:06;3.95;;;1.83;;
79687;SDS011;69155;49.464;2.108;2023-09-18T11:31:43;3.45;;;1.67;;
79687;SDS011;69155;49.464;2.108;2023-09-18T11:34:15;3.40;;;1.85;;
79687;SDS011;69155;49.464;2.108;2023-09-18T11:36:41;3.15;;;1.50;;
79687;SDS011;69155;49.464;2.108;2023-09-18T11:39:06;2.13;;;1.75;;
79687;SDS011;69155;49.464;2.108;2023-09-18T11:41:33;1.50;;;1.40;;
79687;SDS011;69155;49.464;2.108;2023-09-18T11:46:36;2.15;;;1.55;;
79687;SDS011;69155;49.464;2.108;2023-09-18T11:49:04;2.33;;;1.80;;
79687;SDS011;69155;49.464;2.108;2023-09-18T11:51:31;1.85;;;1.50;;
79687;SDS011;69155;49.464;2.108;2023-09-18T11:53:56;3.07;;;1.70;;
79687;SDS011;69155;49.464;2.108;2023-09-18T11:56:22;2.13;;;1.73;;
79687;SDS011;69155;49.464;2.108;2023-09-18T11:58:48;2.03;;;1.63;;
79687;SDS011;69155;49.464;2.108;2023-09-18T12:01:14;4.30;;;1.67;;
79687;SDS011;69155;49.464;2.108;2023-09-18T12:03:40;1.98;;;1.50;;
79687;SDS011;69155;49.464;2.108;2023-09-18T12:06:05;3.55;;;2.08;;
79687;SDS011;69155;49.464;2.108;2023-09-18T12:08:31;2.40;;;1.90;;
79687;SDS011;69155;49.464;2.108;2023-09-18T12:10:57;2.20;;;1.58;;
79687;SDS011;69155;49.464;2.108;2023-09-18T12:13:24;2.25;;;1.55;;
79687;SDS011;69155;49.464;2.108;2023-09-18T12:15:49;1.63;;;1.45;;
79687;SDS011;69155;49.464;2.108;2023-09-18T12:18:17;4.53;;;2.03;;
79687;SDS011;69155;49.464;2.108;2023-09-18T12:20:46;3.20;;;1.83;;
79687;SDS011;69155;49.464;2.108;2023-09-18T12:23:11;1.80;;;1.50;;
79687;SDS011;69155;49.464;2.108;2023-09-18T12:25:38;2.10;;;1.67;;
79687;SDS011;69155;49.464;2.108;2023-09-18T12:28:03;3.13;;;1.83;;
79687;SDS011;69155;49.464;2.108;2023-09-18T12:30:31;2.17;;;1.48;;
79687;SDS011;69155;49.464;2.108;2023-09-18T12:32:57;2.75;;;1.95;;
79687;SDS011;69155;49.464;2.108;2023-09-18T12:35:25;3.45;;;1.77;;
79687;SDS011;69155;49.464;2.108;2023-09-18T12:37:54;2.03;;;1.67;;
79687;SDS011;69155;49.464;2.108;2023-09-18T12:40:26;2.87;;;1.80;;
79687;SDS011;69155;49.464;2.108;2023-09-18T12:42:53;2.90;;;1.80;;
79687;SDS011;69155;49.464;2.108;2023-09-18T12:45:19;2.55;;;1.58;;
79687;SDS011;69155;49.464;2.108;2023-09-18T12:47:45;2.05;;;1.83;;
79687;SDS011;69155;49.464;2.108;2023-09-18T12:50:12;2.33;;;1.33;;
79687;SDS011;69155;49.464;2.108;2023-09-18T12:52:38;2.58;;;1.80;;
79687;SDS011;69155;49.464;2.108;2023-09-18T12:55:03;2.00;;;1.43;;
79687;SDS011;69155;49.464;2.108;2023-09-18T12:57:31;2.03;;;1.60;;
79687;SDS011;69155;49.464;2.108;2023-09-18T12:59:56;2.37;;;1.77;;
79687;SDS011;69155;49.464;2.108;2023-09-18T13:02:21;3.80;;;2.13;;
79687;SDS011;69155;49.464;2.108;2023-09-18T13:04:53;2.13;;;1.60;;
79687;SDS011;69155;49.464;2.108;2023-09-18T13:07:18;2.00;;;1.48;;
79687;SDS011;69155;49.464;2.108;2023-09-18T13:09:57;2.50;;;1.67;;
79687;SDS011;69155;49.464;2.108;2023-09-18T13:12:23;3.22;;;1.67;;
79687;SDS011;69155;49.464;2.108;2023-09-18T13:14:58;1.97;;;1.50;;
79687;SDS011;69155;49.464;2.108;2023-09-18T13:17:25;2.22;;;1.77;;
79687;SDS011;69155;49.464;2.108;2023-09-18T13:19:50;1.92;;;1.60;;
79687;SDS011;69155;49.464;2.108;2023-09-18T13:22:22;1.80;;;1.47;;
79687;SDS011;69155;49.464;2.108;2023-09-18T13:24:54;2.78;;;1.70;;
79687;SDS011;69155;49.464;2.108;2023-09-18T13:27:20;5.70;;;1.70;;
79687;SDS011;69155;49.464;2.108;2023-09-18T13:29:45;2.40;;;1.73;;
79687;SDS011;69155;49.464;2.108;2023-09-18T13:32:10;4.10;;;1.90;;
79687;SDS011;69155;49.464;2.108;2023-09-18T13:34:36;3.22;;;1.95;;
79687;SDS011;69155;49.464;2.108;2023-09-18T13:37:02;2.20;;;1.70;;
79687;SDS011;69155;49.464;2.108;2023-09-18T13:39:27;2.47;;;1.80;;
79687;SDS011;69155;49.464;2.108;2023-09-18T13:41:52;3.53;;;1.73;;
79687;SDS011;69155;49.464;2.108;2023-09-18T13:44:18;2.40;;;1.40;;
79687;SDS011;69155;49.464;2.108;2023-09-18T13:46:43;2.03;;;1.70;;
79687;SDS011;69155;49.464;2.108;2023-09-18T13:49:08;2.87;;;2.10;;
79687;SDS011;69155;49.464;2.108;2023-09-18T13:51:33;2.70;;;1.80;;
79687;SDS011;69155;49.464;2.108;2023-09-18T13:53:58;1.67;;;1.37;;
79687;SDS011;69155;49.464;2.108;2023-09-18T13:56:24;1.57;;;1.47;;
79687;SDS011;69155;49.464;2.108;2023-09-18T13:58:52;1.65;;;1.52;;
79687;SDS011;69155;49.464;2.108;2023-09-18T14:01:18;2.50;;;1.40;;
79687;SDS011;69155;49.464;2.108;2023-09-18T14:03:43;2.78;;;1.60;;
79687;SDS011;69155;49.464;2.108;2023-09-18T14:06:10;1.58;;;1.48;;
79687;SDS011;69155;49.464;2.108;2023-09-18T14:08:35;4.38;;;1.52;;
79687;SDS011;69155;49.464;2.108;2023-09-18T14:11:03;1.83;;;1.17;;
79687;SDS011;69155;49.464;2.108;2023-09-18T14:13:30;3.33;;;1.45;;
79687;SDS011;69155;49.464;2.108;2023-09-18T14:15:55;3.00;;;1.70;;
79687;SDS011;69155;49.464;2.108;2023-09-18T14:18:21;2.33;;;1.55;;
79687;SDS011;69155;49.464;2.108;2023-09-18T14:20:46;2.00;;;1.57;;
79687;SDS011;69155;49.464;2.108;2023-09-18T14:23:12;2.43;;;1.60;;
79687;SDS011;69155;49.464;2.108;2023-09-18T14:25:37;2.60;;;1.40;;
79687;SDS011;69155;49.464;2.108;2023-09-18T14:28:02;2.33;;;1.70;;
79687;SDS011;69155;49.464;2.108;2023-09-18T14:30:27;2.03;;;1.25;;
79687;SDS011;69155;49.464;2.108;2023-09-18T14:32:56;1.02;;;0.93;;
79687;SDS011;69155;49.464;2.108;2023-09-18T14:35:21;2.70;;;1.73;;
79687;SDS011;69155;49.464;2.108;2023-09-18T14:37:48;2.53;;;1.67;;
79687;SDS011;69155;49.464;2.108;2023-09-18T14:40:14;2.08;;;1.27;;
79687;SDS011;69155;49.464;2.108;2023-09-18T14:42:39;1.48;;;1.38;;
79687;SDS011;69155;49.464;2.108;2023-09-18T14:45:05;1.20;;;1.13;;
79687;SDS011;69155;49.464;2.108;2023-09-18T14:47:30;1.75;;;1.38;;
79687;SDS011;69155;49.464;2.108;2023-09-18T14:49:56;2.70;;;1.77;;
79687;SDS011;69155;49.464;2.108;2023-09-18T14:52:23;2.45;;;1.60;;
79687;SDS011;69155;49.464;2.108;2023-09-18T14:54:50;2.20;;;1.67;;